メインページ
METAR-TAF:

METAR-TAF

空港 :

Ballina, オーストラリア

緯度: 28-50-00S, 経度: 153-33-42E, 海抜: 2m

現時点の気象観測

当レポートは1時間5分前の05:00(UTC)に作成
の風 14kt
気温 20°C
湿度 64%
気圧 1024 hPa
視程10km以上

METAR: YBNA 210500Z AUTO 19014KT 9999 // NCD 20/13 Q1024

時間: 16:05 (06:05 UTC)


TAF: 見つかりません

4,000以上の空港の気象観測と天気予報(METAR報とTAF報)

利用可能な観測所は地図上に黄色い丸と赤い丸で示す。

丸の上にカーソルを重ねると観測所名を参照できる。

次にクリックすると気象観測と天気予報を参照できる。

マップの切り替え:黒色「×」印の緑ボタンをクリックして拡大、「-」印の緑ボタンをクリックして縮小、緑色の三角印をクリックして隣りの地図に切り替え


METAR-TAF: